Time;durP1;ratioP1;P1;durP2;ratioP2;P2;SDS_P1;SDS_P2;PMS_P1;PMS_P2;Temp;Humidity;BMP_temperature;BMP_pressure;BME280_temperature;BME280_humidity;BME280_pressure;Samples;Min_cycle;Max_cycle;Signal;HPM_P1;HPM_P2
2021/12/29 00:06:43;;;;;;;4.80;2.50;;;10.90;99.90;;;;;;5075118;28;20159;-80
2021/12/29 00:09:49;;;;;;;4.80;2.73;;;10.90;99.90;;;;;;5077011;28;20192;-79
2021/12/29 00:12:26;;;;;;;5.10;2.83;;;11.00;99.90;;;;;;5077724;28;20210;-78
2021/12/29 00:15:28;;;;;;;5.73;2.97;;;11.20;99.90;;;;;;5081252;28;20145;-79
2021/12/29 00:18:34;;;;;;;5.97;2.90;;;11.00;99.90;;;;;;5079825;28;20233;-78
2021/12/29 00:21:09;;;;;;;6.03;2.67;;;11.00;99.90;;;;;;5076949;28;20208;-80
2021/12/29 00:27:26;;;;;;;5.60;2.50;;;11.00;99.90;;;;;;5080123;28;20172;-79
2021/12/29 00:30:40;;;;;;;4.47;2.83;;;10.90;99.90;;;;;;5077318;28;20677;-79
2021/12/29 00:33:59;;;;;;;5.77;3.20;;;10.90;99.90;;;;;;5078514;28;20165;-80
2021/12/29 00:37:07;;;;;;;5.27;2.70;;;11.00;99.90;;;;;;5077609;28;20201;-78
2021/12/29 00:42:56;;;;;;;6.00;3.00;;;11.00;99.90;;;;;;5079877;28;20251;-78
2021/12/29 00:46:12;;;;;;;6.87;3.40;;;11.00;99.90;;;;;;5077251;28;20241;-79
2021/12/29 00:56:03;;;;;;;6.43;3.63;;;11.00;99.90;;;;;;5077559;28;20209;-81
2021/12/29 01:01:52;;;;;;;7.13;4.40;;;11.00;99.90;;;;;;5078751;28;20243;-79
2021/12/29 01:04:59;;;;;;;7.13;3.90;;;11.00;99.90;;;;;;5077148;28;20180;-81
2021/12/29 01:08:34;;;;;;;10.80;4.17;;;10.90;99.90;;;;;;5077854;28;20153;-79
2021/12/29 01:11:38;;;;;;;9.40;4.30;;;10.90;99.90;;;;;;5077763;28;20177;-79
2021/12/29 01:18:06;;;;;;;5.50;3.73;;;10.90;99.90;;;;;;5078807;28;20200;-80
2021/12/29 01:21:02;;;;;;;7.53;3.70;;;11.00;99.90;;;;;;5078015;28;20201;-79
2021/12/29 01:23:28;;;;;;;6.97;3.83;;;11.00;99.90;;;;;;5078890;28;20203;-80
2021/12/29 01:26:30;;;;;;;6.97;3.93;;;11.10;99.90;;;;;;5079460;28;20207;-80
2021/12/29 01:29:05;;;;;;;7.53;4.10;;;11.10;99.90;;;;;;5075406;28;20192;-80
2021/12/29 01:35:08;;;;;;;8.17;3.13;;;10.90;99.90;;;;;;5078778;28;20164;-80
2021/12/29 01:38:17;;;;;;;7.67;3.90;;;10.90;99.90;;;;;;5077509;28;20157;-79
2021/12/29 01:44:27;;;;;;;7.43;3.57;;;11.00;99.90;;;;;;5079171;28;20176;-79
2021/12/29 01:47:42;;;;;;;6.57;3.23;;;11.00;99.90;;;;;;5075816;28;20149;-79
2021/12/29 01:54:34;;;;;;;6.10;3.57;;;11.10;99.70;;;;;;5077711;28;20211;-81
2021/12/29 01:57:29;;;;;;;6.50;3.60;;;11.20;99.60;;;;;;5075847;28;20169;-80
2021/12/29 02:03:11;;;;;;;7.33;3.60;;;11.20;99.90;;;;;;5084828;22;20239;-77
2021/12/29 02:06:17;;;;;;;8.60;3.57;;;11.30;99.80;;;;;;5077383;28;20184;-78
2021/12/29 02:09:11;;;;;;;6.07;3.23;;;11.20;99.90;;;;;;5074898;28;20181;-78
2021/12/29 02:12:12;;;;;;;5.67;3.47;;;11.10;99.90;;;;;;5074980;28;20195;-81
2021/12/29 02:14:41;;;;;;;4.83;2.93;;;11.10;99.90;;;;;;5077871;28;20161;-82
2021/12/29 02:17:51;;;;;;;9.70;3.43;;;11.10;99.90;;;;;;5078056;28;20179;-77
2021/12/29 02:20:50;;;;;;;10.90;4.23;;;11.10;99.90;;;;;;5077728;28;20212;-78
2021/12/29 02:27:29;;;;;;;4.57;2.93;;;11.00;99.90;;;;;;5075271;28;20203;-79
2021/12/29 02:30:34;;;;;;;6.17;3.47;;;11.00;99.90;;;;;;5078592;28;20168;-80
2021/12/29 02:33:26;;;;;;;5.00;2.90;;;11.00;99.90;;;;;;5077254;28;20168;-79
2021/12/29 02:36:24;;;;;;;6.07;3.13;;;11.00;99.90;;;;;;5072773;28;20161;-83
2021/12/29 02:39:46;;;;;;;6.27;3.00;;;10.90;99.90;;;;;;5074893;28;20204;-87
2021/12/29 02:42:41;;;;;;;8.47;3.37;;;11.00;99.90;;;;;;5077088;28;20149;-91
2021/12/29 02:45:15;;;;;;;6.63;3.23;;;11.00;99.90;;;;;;5076121;28;20193;-89
2021/12/29 02:51:36;;;;;;;6.03;3.10;;;11.20;99.90;;;;;;5082756;28;20176;-83
2021/12/29 02:54:33;;;;;;;5.70;3.10;;;11.20;99.90;;;;;;5082181;28;20153;-79
2021/12/29 03:01:26;;;;;;;8.50;2.90;;;11.20;99.90;;;;;;5082219;28;20231;-78
2021/12/29 03:07:34;;;;;;;8.20;3.07;;;10.90;99.90;;;;;;5079318;28;20197;-79
2021/12/29 03:20:15;;;;;;;4.60;2.67;;;11.20;99.90;;;;;;5066551;28;20195;-80
2021/12/29 03:23:03;;;;;;;5.23;2.90;;;11.10;99.90;;;;;;5076836;28;20177;-80
2021/12/29 03:25:54;;;;;;;6.53;3.43;;;11.00;99.90;;;;;;5080129;28;20213;-81
2021/12/29 03:28:26;;;;;;;4.80;3.07;;;11.00;99.60;;;;;;5078422;28;20239;-78
2021/12/29 03:31:15;;;;;;;7.17;3.03;;;11.00;99.10;;;;;;5076139;28;20165;-84
2021/12/29 03:37:22;;;;;;;6.80;2.93;;;11.00;98.70;;;;;;5059358;28;20199;-78
2021/12/29 03:39:53;;;;;;;5.33;3.07;;;11.00;98.60;;;;;;5042710;28;20233;-78
2021/12/29 03:49:30;;;;;;;6.27;2.97;;;10.90;99.60;;;;;;5059623;28;20153;-79
2021/12/29 03:52:12;;;;;;;5.67;3.20;;;10.90;99.90;;;;;;5059363;28;20161;-79
2021/12/29 03:55:05;;;;;;;7.40;3.60;;;11.00;99.90;;;;;;5043065;28;20170;-78
2021/12/29 03:57:50;;;;;;;7.10;3.40;;;10.90;99.90;;;;;;5043257;28;20201;-82
2021/12/29 04:07:04;;;;;;;6.47;3.10;;;11.00;99.90;;;;;;5064289;28;20192;-79
2021/12/29 04:10:23;;;;;;;5.83;2.90;;;11.00;99.90;;;;;;5080876;28;20165;-79
2021/12/29 04:13:30;;;;;;;10.37;3.47;;;11.00;99.90;;;;;;5080443;28;20240;-80
2021/12/29 04:16:30;;;;;;;8.80;3.17;;;10.90;99.90;;;;;;5080175;28;20252;-80
2021/12/29 04:22:43;;;;;;;6.67;2.70;;;10.80;99.90;;;;;;5077107;28;20164;-80
2021/12/29 04:25:54;;;;;;;9.47;3.10;;;10.80;99.90;;;;;;5079221;28;20201;-79
2021/12/29 04:28:39;;;;;;;6.07;2.83;;;11.00;99.90;;;;;;5079216;28;20236;-79
2021/12/29 04:31:57;;;;;;;7.03;2.80;;;10.90;99.90;;;;;;5076968;28;20176;-82
2021/12/29 04:34:46;;;;;;;7.97;2.80;;;10.90;99.90;;;;;;5075540;28;20181;-79
2021/12/29 04:37:15;;;;;;;6.83;2.60;;;10.80;99.90;;;;;;5074092;28;20255;-90
2021/12/29 04:43:12;;;;;;;5.33;2.67;;;10.70;99.90;;;;;;5080546;28;20200;-81
2021/12/29 04:46:48;;;;;;;6.83;2.90;;;10.70;99.90;;;;;;5079042;28;20165;-78
2021/12/29 04:56:07;;;;;;;9.10;2.93;;;11.00;99.90;;;;;;5075170;28;20156;-81
2021/12/29 04:58:37;;;;;;;11.10;2.83;;;10.90;99.90;;;;;;5076240;28;20192;-81
2021/12/29 05:01:04;;;;;;;6.90;2.93;;;11.00;99.90;;;;;;5076310;28;20233;-85
2021/12/29 05:03:44;;;;;;;5.17;2.60;;;11.20;99.90;;;;;;5078141;28;20188;-80
2021/12/29 05:09:41;;;;;;;8.20;2.87;;;11.20;99.90;;;;;;5076119;28;20152;-80
2021/12/29 05:12:29;;;;;;;9.97;3.23;;;11.00;99.90;;;;;;5074489;28;20607;-89
2021/12/29 05:15:36;;;;;;;8.80;2.77;;;11.10;99.90;;;;;;5072038;28;20197;-87
2021/12/29 05:18:06;;;;;;;7.90;2.60;;;11.00;99.90;;;;;;5073432;28;20157;-85
2021/12/29 05:20:41;;;;;;;9.17;2.40;;;11.00;99.90;;;;;;5072978;28;20213;-89
2021/12/29 05:23:34;;;;;;;7.40;2.40;;;10.90;99.90;;;;;;5072551;28;20193;-83
2021/12/29 05:26:08;;;;;;;11.37;3.10;;;10.90;99.90;;;;;;5074330;28;20180;-89
2021/12/29 05:28:54;;;;;;;10.40;2.97;;;10.90;99.90;;;;;;5071610;28;20149;-81
2021/12/29 05:31:30;;;;;;;10.90;2.60;;;10.80;99.90;;;;;;5072993;28;20255;-80
2021/12/29 05:33:59;;;;;;;6.17;2.60;;;10.80;99.90;;;;;;5072348;28;20228;-90
2021/12/29 05:36:50;;;;;;;8.70;2.90;;;10.90;99.90;;;;;;5076705;28;20157;-80
2021/12/29 05:39:44;;;;;;;6.90;2.73;;;10.90;99.90;;;;;;5078102;28;20181;-79
2021/12/29 05:42:35;;;;;;;11.37;3.10;;;10.90;99.90;;;;;;5077620;28;20165;-84
2021/12/29 05:48:45;;;;;;;8.00;3.03;;;10.80;99.90;;;;;;5076041;28;20168;-85
2021/12/29 05:51:30;;;;;;;8.73;3.10;;;10.80;99.90;;;;;;5074974;28;20175;-79
2021/12/29 05:53:57;;;;;;;6.73;3.07;;;10.80;99.90;;;;;;5077042;28;20164;-77
2021/12/29 05:56:26;;;;;;;7.47;2.73;;;10.80;99.90;;;;;;5074775;28;20181;-78
2021/12/29 05:59:19;;;;;;;13.03;3.10;;;10.70;99.90;;;;;;5076026;28;20173;-78
2021/12/29 06:01:46;;;;;;;6.83;2.87;;;10.90;99.90;;;;;;5073265;28;20197;-80
2021/12/29 06:04:46;;;;;;;8.73;3.30;;;10.80;99.90;;;;;;5071626;28;20188;-83
2021/12/29 06:07:16;;;;;;;7.13;3.07;;;10.70;99.90;;;;;;5074719;28;20168;-92
2021/12/29 06:10:00;;;;;;;5.20;2.37;;;10.50;99.90;;;;;;5070741;28;20162;-90
2021/12/29 06:12:40;;;;;;;10.70;3.60;;;10.50;99.90;;;;;;5075904;28;20150;-77
2021/12/29 06:15:53;;;;;;;8.43;3.13;;;10.50;99.90;;;;;;5079215;28;20159;-78
2021/12/29 06:18:40;;;;;;;7.20;2.93;;;10.40;99.90;;;;;;5075834;28;20253;-79
2021/12/29 06:25:04;;;;;;;9.13;3.20;;;10.30;99.90;;;;;;5072612;28;20161;-82
2021/12/29 06:28:25;;;;;;;6.97;3.00;;;10.40;99.90;;;;;;5075654;28;20153;-78
2021/12/29 06:31:20;;;;;;;7.83;2.50;;;10.50;99.90;;;;;;5077108;28;20169;-78
2021/12/29 06:33:53;;;;;;;7.20;3.00;;;10.30;99.90;;;;;;5074459;28;20196;-79
2021/12/29 06:40:22;;;;;;;6.13;2.73;;;10.40;99.90;;;;;;5077255;28;20206;-78
2021/12/29 06:42:56;;;;;;;7.73;2.23;;;10.40;99.90;;;;;;5074007;28;20173;-89
2021/12/29 06:46:14;;;;;;;7.00;2.60;;;10.30;99.90;;;;;;5075185;28;20165;-83
2021/12/29 06:49:05;;;;;;;8.30;2.97;;;10.20;99.90;;;;;;5074986;28;20160;-79
2021/12/29 06:51:46;;;;;;;9.23;3.00;;;10.20;99.90;;;;;;5074794;28;20192;-79
2021/12/29 06:54:36;;;;;;;9.63;2.93;;;10.10;99.90;;;;;;5074472;28;20161;-78
2021/12/29 06:57:10;;;;;;;6.13;2.63;;;10.20;99.90;;;;;;5075060;28;20169;-78
2021/12/29 07:00:21;;;;;;;9.87;2.67;;;10.10;99.90;;;;;;5075081;28;20203;-78
2021/12/29 07:03:08;;;;;;;9.43;2.87;;;10.00;99.90;;;;;;5076354;28;20199;-82
2021/12/29 07:05:56;;;;;;;9.97;2.60;;;9.90;99.90;;;;;;5075568;28;20256;-80
2021/12/29 07:09:18;;;;;;;7.57;2.60;;;9.80;99.90;;;;;;5074865;28;20242;-80
2021/12/29 07:11:56;;;;;;;9.23;3.57;;;9.80;99.90;;;;;;5075353;28;20195;-79
2021/12/29 07:14:44;;;;;;;8.00;4.10;;;9.80;99.90;;;;;;5073975;28;20178;-79
2021/12/29 07:17:49;;;;;;;10.97;4.57;;;9.80;99.90;;;;;;5075708;28;20173;-78
2021/12/29 07:20:25;;;;;;;6.00;2.60;;;9.80;99.90;;;;;;5077012;28;20196;-80
2021/12/29 07:23:20;;;;;;;7.10;3.10;;;9.80;99.90;;;;;;5076310;28;20160;-79
2021/12/29 07:26:25;;;;;;;9.50;3.40;;;9.80;99.90;;;;;;5073016;28;20153;-82
2021/12/29 07:29:22;;;;;;;12.10;3.70;;;9.80;99.90;;;;;;5073571;28;20161;-78
2021/12/29 07:31:51;;;;;;;7.47;3.57;;;9.80;99.90;;;;;;5066021;28;20260;-93
2021/12/29 07:34:19;;;;;;;9.00;3.60;;;9.90;99.90;;;;;;5056557;28;20252;-91
2021/12/29 07:36:52;;;;;;;9.37;3.27;;;9.90;99.90;;;;;;5059791;28;20682;-86
2021/12/29 07:39:49;;;;;;;7.97;3.30;;;10.00;99.90;;;;;;5045757;28;20622;-85
2021/12/29 07:42:15;;;;;;;9.90;4.13;;;10.00;99.90;;;;;;5058970;28;20176;-81
2021/12/29 07:44:43;;;;;;;8.03;3.73;;;10.10;99.90;;;;;;5074830;28;20199;-88
2021/12/29 07:47:11;;;;;;;11.33;3.97;;;9.90;99.90;;;;;;5076151;28;20207;-80
2021/12/29 07:49:36;;;;;;;9.17;4.20;;;9.90;99.90;;;;;;5079306;28;20137;-79
2021/12/29 07:52:02;;;;;;;11.40;4.00;;;9.90;99.90;;;;;;5077361;28;20192;-79
2021/12/29 07:54:28;;;;;;;12.30;4.00;;;9.90;99.90;;;;;;5077273;28;20157;-81
2021/12/29 07:56:55;;;;;;;10.60;3.90;;;10.00;99.90;;;;;;5076896;28;20210;-81
2021/12/29 07:59:27;;;;;;;8.80;3.70;;;9.90;99.90;;;;;;5067146;28;20308;-92
2021/12/29 08:02:16;;;;;;;7.07;3.60;;;10.00;99.90;;;;;;5063784;28;20205;-95
2021/12/29 08:04:44;;;;;;;10.33;3.67;;;10.00;99.90;;;;;;5071195;28;20260;-87
2021/12/29 08:07:20;;;;;;;9.57;3.70;;;10.10;99.90;;;;;;5074526;28;20216;-89
2021/12/29 08:09:52;;;;;;;10.80;3.80;;;10.10;99.90;;;;;;5076012;28;20161;-80
2021/12/29 08:12:33;;;;;;;7.50;3.60;;;10.10;99.90;;;;;;5069842;28;20266;-91
2021/12/29 08:14:59;;;;;;;10.67;3.77;;;10.20;99.90;;;;;;5079273;28;20177;-89
2021/12/29 08:17:25;;;;;;;10.87;4.07;;;10.20;99.90;;;;;;5078743;28;20193;-81
2021/12/29 08:19:51;;;;;;;7.77;3.47;;;10.30;99.90;;;;;;5073663;28;20184;-84
2021/12/29 08:22:23;;;;;;;9.07;3.60;;;10.20;99.90;;;;;;5071746;28;20184;-88
2021/12/29 08:24:52;;;;;;;7.60;3.77;;;10.30;99.90;;;;;;5071995;28;20171;-83
2021/12/29 08:27:18;;;;;;;9.40;3.60;;;10.30;99.90;;;;;;5078735;28;20157;-80
2021/12/29 08:29:43;;;;;;;11.07;4.40;;;10.20;99.90;;;;;;5079608;28;20180;-80
2021/12/29 08:32:12;;;;;;;11.90;4.77;;;10.20;99.90;;;;;;5078883;28;20252;-78
2021/12/29 08:34:38;;;;;;;12.87;3.50;;;10.20;99.90;;;;;;5076558;28;20181;-80
2021/12/29 08:37:04;;;;;;;9.43;3.00;;;10.20;99.90;;;;;;5078467;28;20221;-83
2021/12/29 08:39:33;;;;;;;6.20;2.90;;;10.20;99.90;;;;;;5071411;28;20204;-88
2021/12/29 08:42:12;;;;;;;11.47;2.87;;;10.70;99.90;;;;;;5070505;28;20200;-83
2021/12/29 08:48:01;;;;;;;11.50;3.77;;;10.50;99.90;;;;;;5059208;28;20172;-83
2021/12/29 08:50:45;;;;;;;10.97;2.70;;;10.40;99.90;;;;;;5058989;28;20235;-89
2021/12/29 08:53:21;;;;;;;13.13;3.00;;;10.40;99.90;;;;;;5072319;28;20176;-84
2021/12/29 08:55:51;;;;;;;9.90;3.93;;;10.30;99.90;;;;;;5076805;28;20176;-86
2021/12/29 08:58:19;;;;;;;9.00;3.53;;;10.40;99.90;;;;;;5066022;28;20177;-82
2021/12/29 09:00:45;;;;;;;8.77;3.60;;;10.30;99.90;;;;;;5068919;28;20207;-85
2021/12/29 09:03:11;;;;;;;9.60;3.30;;;10.30;99.90;;;;;;5073533;28;20174;-85
2021/12/29 09:05:37;;;;;;;9.37;3.47;;;10.30;99.90;;;;;;5058956;28;20201;-82
2021/12/29 09:08:04;;;;;;;10.00;2.87;;;10.40;99.90;;;;;;5059376;28;20200;-89
2021/12/29 09:11:01;;;;;;;7.70;3.50;;;10.30;99.90;;;;;;5058975;28;20173;-89
2021/12/29 09:13:26;;;;;;;14.10;4.40;;;10.40;99.90;;;;;;5059778;28;20177;-87
2021/12/29 09:15:56;;;;;;;7.90;3.10;;;10.50;99.90;;;;;;5059323;28;20176;-81
2021/12/29 09:18:23;;;;;;;7.47;3.30;;;10.50;99.90;;;;;;5070488;28;20196;-85
2021/12/29 09:20:50;;;;;;;12.37;3.47;;;10.40;99.90;;;;;;5078949;28;20204;-81
2021/12/29 09:23:16;;;;;;;13.60;4.00;;;10.50;99.90;;;;;;5077781;28;20188;-83
2021/12/29 09:25:45;;;;;;;9.80;3.57;;;10.60;99.90;;;;;;5074162;28;20161;-80
2021/12/29 09:28:16;;;;;;;9.23;3.43;;;10.50;99.90;;;;;;5070372;28;20162;-81
2021/12/29 09:30:47;;;;;;;10.70;3.30;;;10.50;99.90;;;;;;5074330;28;20172;-83
2021/12/29 09:33:15;;;;;;;8.17;3.40;;;10.50;99.90;;;;;;5074047;28;20173;-82
2021/12/29 09:35:43;;;;;;;13.00;3.27;;;10.50;99.90;;;;;;5065221;28;20189;-81
2021/12/29 09:38:09;;;;;;;9.00;3.13;;;10.40;99.90;;;;;;5063905;28;20181;-83
2021/12/29 09:40:37;;;;;;;12.83;3.87;;;10.40;99.90;;;;;;5065132;28;20197;-85
2021/12/29 09:43:07;;;;;;;17.67;3.83;;;10.50;99.90;;;;;;5063442;28;20618;-82
2021/12/29 09:45:41;;;;;;;11.60;4.03;;;10.40;99.90;;;;;;5062144;28;20256;-84
2021/12/29 09:48:11;;;;;;;10.70;3.60;;;10.60;99.90;;;;;;5072970;28;20243;-78
2021/12/29 09:51:18;;;;;;;13.87;3.40;;;10.80;99.90;;;;;;5071932;28;20161;-88
2021/12/29 09:54:19;;;;;;;8.20;3.33;;;11.00;99.90;;;;;;5069442;28;20163;-89
2021/12/29 09:56:46;;;;;;;8.63;3.10;;;10.90;99.90;;;;;;5074463;28;20149;-83
2021/12/29 09:59:25;;;;;;;11.03;4.13;;;11.00;99.90;;;;;;5076305;28;20161;-88
2021/12/29 10:01:52;;;;;;;9.47;3.27;;;11.20;99.90;;;;;;5070795;28;20192;-88
2021/12/29 10:04:46;;;;;;;6.60;3.00;;;11.30;99.90;;;;;;5056183;28;20206;-85
2021/12/29 10:07:15;;;;;;;8.73;3.87;;;11.20;99.90;;;;;;5057934;28;20161;-85
2021/12/29 10:09:42;;;;;;;10.03;3.33;;;11.20;99.90;;;;;;5057180;28;20170;-86
2021/12/29 10:12:10;;;;;;;9.90;3.50;;;11.30;99.90;;;;;;5054681;28;20252;-85
2021/12/29 10:14:36;;;;;;;11.60;3.40;;;11.30;99.90;;;;;;5060924;28;20229;-80
2021/12/29 10:17:15;;;;;;;8.03;3.50;;;11.20;99.90;;;;;;5074100;28;20169;-81
2021/12/29 10:19:42;;;;;;;7.07;3.60;;;11.00;99.90;;;;;;5074509;28;20177;-81
2021/12/29 10:25:19;;;;;;;10.60;3.50;;;10.80;99.90;;;;;;5075635;28;20153;-79
2021/12/29 10:28:03;;;;;;;9.70;3.80;;;10.70;99.90;;;;;;5067647;28;20169;-80
2021/12/29 10:30:55;;;;;;;11.50;4.07;;;10.70;99.90;;;;;;5072474;28;20184;-79
2021/12/29 10:33:44;;;;;;;9.90;3.40;;;10.70;99.90;;;;;;5068893;28;20177;-80
2021/12/29 10:37:17;;;;;;;11.10;4.20;;;10.70;99.90;;;;;;5068119;28;20601;-79
2021/12/29 10:44:05;;;;;;;9.63;4.50;;;10.70;99.90;;;;;;5070589;28;20202;-79
2021/12/29 10:46:47;;;;;;;8.57;4.87;;;10.70;99.90;;;;;;5074768;28;20244;-78
2021/12/29 10:49:39;;;;;;;11.23;4.97;;;10.80;99.90;;;;;;5072784;28;20177;-79
2021/12/29 10:55:57;;;;;;;10.43;5.67;;;10.80;99.90;;;;;;5073484;28;20245;-81
2021/12/29 10:58:42;;;;;;;11.97;5.43;;;10.80;99.90;;;;;;5071839;28;20268;-81
2021/12/29 11:01:12;;;;;;;14.80;6.43;;;10.70;99.90;;;;;;5068991;22;20236;-79
2021/12/29 11:07:03;;;;;;;13.63;5.70;;;10.80;99.90;;;;;;5055603;28;20188;-81
2021/12/29 11:12:54;;;;;;;8.67;5.20;;;10.80;99.90;;;;;;5059064;28;20149;-78
2021/12/29 11:16:06;;;;;;;13.33;5.87;;;10.80;99.90;;;;;;5058749;28;20181;-79
2021/12/29 11:19:06;;;;;;;13.50;6.50;;;10.90;99.90;;;;;;5060297;28;20178;-79
2021/12/29 11:28:49;;;;;;;11.60;5.10;;;10.80;99.90;;;;;;5047379;28;20173;-79
2021/12/29 11:31:36;;;;;;;10.07;5.20;;;10.90;99.90;;;;;;5059672;28;20178;-80
2021/12/29 11:37:57;;;;;;;11.30;4.50;;;11.00;99.90;;;;;;5060112;28;20216;-79
2021/12/29 11:40:45;;;;;;;12.33;4.30;;;11.00;99.90;;;;;;5059080;28;20232;-79
2021/12/29 11:43:29;;;;;;;10.33;4.10;;;11.00;99.90;;;;;;5059117;28;20178;-80
2021/12/29 11:46:23;;;;;;;13.20;4.53;;;11.00;99.90;;;;;;5059625;28;20186;-78
2021/12/29 11:59:17;;;;;;;8.43;4.67;;;11.00;99.90;;;;;;5059996;28;20165;-79
2021/12/29 12:05:38;;;;;;;8.53;3.60;;;11.00;99.90;;;;;;5014380;28;20710;-78
2021/12/29 12:08:55;;;;;;;9.87;3.73;;;11.00;99.90;;;;;;5016079;28;20175;-79
2021/12/29 12:11:27;;;;;;;8.70;3.97;;;11.00;99.90;;;;;;5018421;28;20191;-78
2021/12/29 12:21:14;;;;;;;9.73;3.27;;;11.10;99.90;;;;;;5019061;28;20247;-79
2021/12/29 12:24:32;;;;;;;10.40;3.93;;;11.10;99.90;;;;;;5017619;28;20147;-80
2021/12/29 12:28:25;;;;;;;10.77;4.03;;;11.00;99.90;;;;;;5016628;28;20207;-79
2021/12/29 12:35:30;;;;;;;7.53;3.47;;;11.00;99.90;;;;;;5039400;28;20157;-78
2021/12/29 12:42:45;;;;;;;9.73;3.43;;;10.90;99.90;;;;;;5025284;28;20205;-78
2021/12/29 12:46:03;;;;;;;7.70;3.63;;;10.90;99.90;;;;;;5034402;28;20190;-79
2021/12/29 12:48:58;;;;;;;5.83;3.57;;;11.00;99.90;;;;;;5034992;28;20171;-79
2021/12/29 12:52:37;;;;;;;7.00;3.30;;;11.00;99.90;;;;;;5034503;28;20181;-80
2021/12/29 12:58:38;;;;;;;6.07;3.40;;;11.00;99.90;;;;;;4991774;28;20264;-80
2021/12/29 13:01:23;;;;;;;5.37;2.97;;;10.90;99.90;;;;;;4975270;28;20295;-79
2021/12/29 13:07:23;;;;;;;8.70;3.40;;;10.90;99.90;;;;;;5038681;28;20186;-79
2021/12/29 13:10:32;;;;;;;7.20;3.00;;;10.90;99.90;;;;;;5034821;28;20181;-79
2021/12/29 13:13:21;;;;;;;5.23;2.63;;;10.90;99.90;;;;;;5034691;28;20174;-78
2021/12/29 13:16:24;;;;;;;6.77;3.10;;;10.90;99.90;;;;;;5038299;28;20170;-80
2021/12/29 13:18:52;;;;;;;4.33;2.73;;;11.00;99.90;;;;;;5030898;28;20181;-80
2021/12/29 13:21:26;;;;;;;5.53;2.77;;;11.00;99.90;;;;;;5029224;28;20254;-80
2021/12/29 13:27:20;;;;;;;5.90;3.20;;;11.00;99.90;;;;;;5038534;28;20189;-79
2021/12/29 13:33:10;;;;;;;4.90;2.60;;;11.00;99.90;;;;;;5038737;28;20213;-80
2021/12/29 13:35:46;;;;;;;5.63;2.77;;;11.00;99.90;;;;;;5039073;28;20230;-79
2021/12/29 13:38:20;;;;;;;4.83;2.70;;;10.90;99.90;;;;;;5033625;28;20174;-80
2021/12/29 13:41:13;;;;;;;3.87;2.27;;;11.00;99.90;;;;;;5025797;28;20257;-80
2021/12/29 13:54:27;;;;;;;8.07;2.90;;;11.00;99.90;;;;;;5031552;28;20205;-80
2021/12/29 13:56:56;;;;;;;4.90;2.33;;;11.00;99.90;;;;;;5027227;28;20153;-79
2021/12/29 13:59:36;;;;;;;4.93;2.60;;;11.00;99.90;;;;;;5024165;28;20190;-80
2021/12/29 14:02:08;;;;;;;4.43;2.67;;;11.10;99.90;;;;;;5024249;28;20582;-80
2021/12/29 14:04:47;;;;;;;5.37;2.67;;;11.10;99.90;;;;;;5024539;28;20580;-80
2021/12/29 14:07:29;;;;;;;3.70;2.77;;;11.10;99.90;;;;;;5026273;28;20222;-81
2021/12/29 14:10:07;;;;;;;3.23;2.30;;;11.20;99.90;;;;;;5021341;28;20194;-80
2021/12/29 14:19:29;;;;;;;4.47;2.30;;;11.30;99.90;;;;;;5038272;28;20333;-79
2021/12/29 14:22:43;;;;;;;3.53;2.60;;;11.30;99.90;;;;;;5038804;28;20194;-79
2021/12/29 14:25:19;;;;;;;2.53;2.00;;;11.30;99.90;;;;;;5037090;28;20193;-79
2021/12/29 14:27:58;;;;;;;4.40;2.33;;;11.40;99.90;;;;;;5037947;28;20158;-81
2021/12/29 14:31:04;;;;;;;7.40;3.10;;;11.50;99.90;;;;;;5038182;28;20193;-79
2021/12/29 14:33:42;;;;;;;2.93;2.20;;;11.50;99.90;;;;;;5037487;28;20190;-79
2021/12/29 14:36:44;;;;;;;3.93;2.57;;;11.50;99.90;;;;;;5037859;28;20162;-79
2021/12/29 14:42:40;;;;;;;3.47;2.90;;;11.60;99.90;;;;;;5037068;28;20212;-78
2021/12/29 14:45:10;;;;;;;4.50;2.93;;;11.70;99.90;;;;;;5033099;28;20198;-78
2021/12/29 14:47:59;;;;;;;5.13;3.50;;;11.80;99.90;;;;;;5034733;28;20170;-79
2021/12/29 14:53:49;;;;;;;4.70;3.30;;;12.00;99.90;;;;;;5034919;28;20223;-79
2021/12/29 14:56:24;;;;;;;4.73;4.03;;;12.00;99.90;;;;;;5032565;28;20186;-80
2021/12/29 14:59:31;;;;;;;5.60;4.80;;;12.10;99.90;;;;;;5032473;28;20177;-79
2021/12/29 15:02:39;;;;;;;4.87;3.53;;;12.20;99.90;;;;;;5034449;28;20261;-80
2021/12/29 15:05:33;;;;;;;5.73;4.17;;;12.20;99.90;;;;;;5033118;28;20165;-81
2021/12/29 15:07:59;;;;;;;5.73;4.00;;;12.20;99.90;;;;;;5032023;28;20194;-81
2021/12/29 15:10:54;;;;;;;4.53;4.10;;;12.30;99.90;;;;;;5032780;28;20296;-80
2021/12/29 15:17:06;;;;;;;4.93;4.20;;;12.40;99.90;;;;;;5032885;28;20209;-79
2021/12/29 15:19:59;;;;;;;6.80;5.67;;;12.50;99.90;;;;;;5032595;28;20261;-81
2021/12/29 15:23:19;;;;;;;6.47;4.93;;;12.60;99.90;;;;;;5032931;28;20166;-81
2021/12/29 15:32:40;;;;;;;6.00;5.40;;;12.90;99.90;;;;;;5037003;28;20169;-82
2021/12/29 15:38:31;;;;;;;6.90;6.30;;;13.00;99.90;;;;;;5033906;28;20181;-80
2021/12/29 15:41:31;;;;;;;6.97;6.03;;;13.10;99.90;;;;;;5033890;28;20206;-80
2021/12/29 15:44:28;;;;;;;7.13;6.43;;;13.10;99.90;;;;;;5027984;28;20189;-80
2021/12/29 15:47:39;;;;;;;7.40;6.70;;;13.10;99.90;;;;;;5029788;28;20232;-81
2021/12/29 15:50:35;;;;;;;7.20;6.40;;;13.20;99.90;;;;;;5029574;28;20234;-79
2021/12/29 15:56:49;;;;;;;7.27;6.57;;;13.20;99.90;;;;;;5037476;28;20177;-81
2021/12/29 15:59:40;;;;;;;7.37;6.67;;;13.20;99.90;;;;;;5036777;28;20240;-80
2021/12/29 16:02:29;;;;;;;7.37;6.67;;;13.20;99.90;;;;;;5035008;28;20193;-81
2021/12/29 16:05:31;;;;;;;8.23;7.43;;;13.20;99.90;;;;;;5037844;28;20221;-82
2021/12/29 16:14:50;;;;;;;9.90;8.27;;;13.30;99.90;;;;;;5040716;28;20169;-81
2021/12/29 16:20:41;;;;;;;6.83;6.23;;;13.40;99.90;;;;;;5073487;28;20200;-81
2021/12/29 16:30:10;;;;;;;8.60;7.73;;;13.50;99.90;;;;;;5079308;28;20176;-79
2021/12/29 16:32:48;;;;;;;7.23;6.53;;;13.50;99.90;;;;;;5074066;28;20220;-80
2021/12/29 16:35:52;;;;;;;7.30;6.60;;;13.60;99.90;;;;;;5078092;28;20256;-79
2021/12/29 16:39:06;;;;;;;7.80;6.20;;;13.70;99.90;;;;;;5075887;28;20165;-80
2021/12/29 16:41:49;;;;;;;8.90;6.10;;;13.80;99.90;;;;;;5072599;28;20227;-80
2021/12/29 16:48:31;;;;;;;6.83;5.03;;;13.80;99.90;;;;;;5079528;28;20160;-80
2021/12/29 16:51:22;;;;;;;6.27;4.93;;;13.90;99.90;;;;;;5076934;28;20193;-80
2021/12/29 16:53:52;;;;;;;7.40;3.80;;;13.90;99.90;;;;;;5098919;22;20236;-79
2021/12/29 16:57:03;;;;;;;4.73;3.27;;;13.90;99.90;;;;;;5037766;28;20182;-80
2021/12/29 17:03:37;;;;;;;8.93;3.73;;;14.00;99.90;;;;;;5035272;28;20227;-80
2021/12/29 17:06:37;;;;;;;6.97;3.37;;;14.00;99.90;;;;;;5033658;28;20177;-79
2021/12/29 17:09:59;;;;;;;7.43;3.50;;;14.00;99.90;;;;;;5036108;28;20246;-81
2021/12/29 17:13:27;;;;;;;6.50;3.27;;;14.00;99.90;;;;;;5034051;28;20194;-80
2021/12/29 17:16:56;;;;;;;7.57;3.23;;;14.00;99.90;;;;;;5035348;28;20160;-80
2021/12/29 17:20:28;;;;;;;7.40;3.47;;;14.00;99.90;;;;;;5029546;28;20649;-79
2021/12/29 17:23:28;;;;;;;10.07;4.10;;;14.00;99.90;;;;;;5028999;28;20191;-81
2021/12/29 17:26:35;;;;;;;7.53;3.53;;;14.00;99.90;;;;;;5012223;28;20210;-80
2021/12/29 17:29:38;;;;;;;5.37;3.20;;;14.00;99.90;;;;;;5077417;28;20177;-81
2021/12/29 17:35:52;;;;;;;9.30;3.53;;;14.00;99.90;;;;;;5077136;28;20164;-80
2021/12/29 17:42:09;;;;;;;6.70;3.13;;;13.90;99.90;;;;;;5071960;28;20255;-80
2021/12/29 17:48:04;;;;;;;7.23;3.70;;;14.00;99.90;;;;;;5072379;28;20173;-81
2021/12/29 17:50:56;;;;;;;7.53;3.13;;;14.00;99.90;;;;;;5074251;28;20221;-80
2021/12/29 17:53:55;;;;;;;7.80;3.50;;;14.00;99.90;;;;;;5075936;28;20177;-80
2021/12/29 17:56:42;;;;;;;7.70;3.20;;;14.00;99.90;;;;;;5072609;28;20188;-80
2021/12/29 17:59:37;;;;;;;6.33;3.40;;;14.00;99.90;;;;;;5072469;28;20200;-81
2021/12/29 18:02:30;;;;;;;8.73;3.23;;;14.00;99.90;;;;;;5071326;28;20207;-79
2021/12/29 18:05:14;;;;;;;5.87;3.23;;;14.10;99.90;;;;;;5073938;28;20157;-80
2021/12/29 18:07:57;;;;;;;9.97;3.20;;;14.10;99.90;;;;;;5075877;28;20158;-80
2021/12/29 18:10:51;;;;;;;9.23;3.47;;;14.10;99.90;;;;;;5075006;28;20629;-79
2021/12/29 18:13:20;;;;;;;10.60;3.40;;;14.10;99.90;;;;;;5071113;28;20169;-80
2021/12/29 18:16:10;;;;;;;8.17;3.63;;;14.00;99.90;;;;;;5070644;28;20165;-80
2021/12/29 18:18:44;;;;;;;10.17;4.00;;;14.00;99.90;;;;;;5073360;28;20165;-80
2021/12/29 18:21:37;;;;;;;9.43;3.77;;;14.10;99.90;;;;;;5072631;28;20209;-80
2021/12/29 18:24:37;;;;;;;15.67;4.03;;;14.20;99.90;;;;;;5069432;28;20281;-79
2021/12/29 18:27:45;;;;;;;10.97;3.57;;;14.10;99.90;;;;;;5069278;28;20174;-81
2021/12/29 18:30:19;;;;;;;10.43;3.73;;;14.10;99.90;;;;;;5075532;28;20180;-80
2021/12/29 18:33:04;;;;;;;11.27;4.10;;;14.10;99.90;;;;;;5073844;28;20173;-79
2021/12/29 18:45:19;;;;;;;14.07;4.23;;;14.20;99.90;;;;;;5070534;28;20196;-80
2021/12/29 18:48:27;;;;;;;13.90;3.83;;;14.20;99.90;;;;;;5072112;28;20227;-80
2021/12/29 18:51:12;;;;;;;13.73;4.37;;;14.20;99.90;;;;;;5070275;28;20199;-80
2021/12/29 18:54:15;;;;;;;14.30;4.53;;;14.20;99.90;;;;;;5071768;28;20157;-80